Time;durP1;ratioP1;P1;durP2;ratioP2;P2;SDS_P1;SDS_P2;PMS_P1;PMS_P2;Temp;Humidity;BMP_temperature;BMP_pressure;BME280_temperature;BME280_humidity;BME280_pressure;Samples;Min_cycle;Max_cycle;Signal;HPM_P1;HPM_P2
2023/04/07 00:01:42;;;;;;;8.75;6.32;;;4.80;99.90;;;;;;5038026;28;20376;-30
2023/04/07 00:04:08;;;;;;;10.05;6.38;;;4.80;99.90;;;;;;5046656;28;20068;-30
2023/04/07 00:06:34;;;;;;;8.98;5.82;;;4.80;99.90;;;;;;5045456;28;20508;-31
2023/04/07 00:09:00;;;;;;;7.25;6.03;;;4.80;99.90;;;;;;5045879;28;20036;-30
2023/04/07 00:11:25;;;;;;;10.10;5.53;;;4.90;99.90;;;;;;5037833;28;20033;-30
2023/04/07 00:13:51;;;;;;;8.18;5.72;;;5.00;99.90;;;;;;5039807;28;20068;-29
2023/04/07 00:16:16;;;;;;;7.55;5.10;;;5.10;99.90;;;;;;5055248;28;20029;-30
2023/04/07 00:18:42;;;;;;;10.02;5.20;;;5.20;99.90;;;;;;5036970;28;20026;-31
2023/04/07 00:21:08;;;;;;;7.85;4.95;;;5.20;99.90;;;;;;5029801;28;20041;-30
2023/04/07 00:23:33;;;;;;;6.35;5.03;;;5.30;99.90;;;;;;5056640;28;20394;-30
2023/04/07 00:25:59;;;;;;;9.70;6.07;;;5.30;99.90;;;;;;5033378;28;20562;-30
2023/04/07 00:28:25;;;;;;;9.50;5.28;;;5.30;99.90;;;;;;5036535;28;20083;-32
2023/04/07 00:30:51;;;;;;;8.02;5.03;;;5.40;99.90;;;;;;5046956;28;20544;-30
2023/04/07 00:33:16;;;;;;;7.65;4.25;;;5.40;99.90;;;;;;5034830;28;20036;-30
2023/04/07 00:35:42;;;;;;;9.82;4.53;;;5.40;99.90;;;;;;5036930;28;20449;-30
2023/04/07 00:38:07;;;;;;;5.80;3.95;;;5.50;99.90;;;;;;5044466;28;20033;-30
2023/04/07 00:40:33;;;;;;;6.35;4.53;;;5.50;99.90;;;;;;5040079;28;20498;-30
2023/04/07 00:42:59;;;;;;;5.75;4.32;;;5.50;99.90;;;;;;5038149;28;20064;-30
2023/04/07 00:45:24;;;;;;;5.50;4.05;;;5.50;99.90;;;;;;5039539;28;20364;-29
2023/04/07 00:47:50;;;;;;;3.58;2.97;;;5.50;99.90;;;;;;5045459;28;20371;-30
2023/04/07 00:50:17;;;;;;;5.10;3.45;;;5.60;99.90;;;;;;5045439;28;20442;-30
2023/04/07 00:52:43;;;;;;;3.15;2.85;;;5.60;99.90;;;;;;5039631;28;20036;-31
2023/04/07 00:55:09;;;;;;;3.50;2.65;;;5.60;99.90;;;;;;5048300;28;20497;-31
2023/04/07 00:57:35;;;;;;;5.22;3.25;;;5.60;99.90;;;;;;5036425;28;20031;-30
2023/04/07 01:00:00;;;;;;;4.45;2.80;;;5.60;99.90;;;;;;5043039;28;20482;-30
2023/04/07 01:02:48;;;;;;;4.65;2.97;;;5.60;99.90;;;;;;5033839;28;20418;-30
2023/04/07 01:05:25;;;;;;;4.65;2.25;;;5.50;99.90;;;;;;5043480;28;20382;-30
2023/04/07 01:08:11;;;;;;;2.25;1.73;;;5.60;99.90;;;;;;5036065;28;20029;-30
2023/04/07 01:10:50;;;;;;;2.85;1.88;;;5.60;99.90;;;;;;5040626;28;20111;-30
2023/04/07 01:13:56;;;;;;;3.15;2.35;;;5.60;99.90;;;;;;5037286;28;20028;-30
2023/04/07 01:16:38;;;;;;;3.92;2.13;;;5.60;99.90;;;;;;5008405;28;20404;-30
2023/04/07 01:19:31;;;;;;;2.80;2.30;;;5.70;99.90;;;;;;4993669;28;20030;-30
2023/04/07 01:21:59;;;;;;;2.38;1.95;;;5.60;99.90;;;;;;5029752;28;20032;-30
2023/04/07 01:24:48;;;;;;;2.95;2.17;;;5.70;99.90;;;;;;5035712;28;20108;-30
2023/04/07 01:27:30;;;;;;;2.70;2.08;;;5.70;99.90;;;;;;5047925;28;20508;-30
2023/04/07 01:29:57;;;;;;;2.70;2.15;;;5.60;99.90;;;;;;5045791;28;20033;-29
2023/04/07 01:32:25;;;;;;;3.78;2.80;;;5.60;99.90;;;;;;5038371;28;20072;-33
2023/04/07 01:34:52;;;;;;;;;;;5.60;99.90;;;;;;5036607;28;20028;-29
2023/04/07 01:37:19;;;;;;;2.75;2.22;;;5.60;99.90;;;;;;5054841;28;20395;-29
2023/04/07 01:39:45;;;;;;;3.60;2.55;;;5.50;99.90;;;;;;5038787;28;20029;-30
2023/04/07 01:42:11;;;;;;;3.67;2.47;;;5.60;99.90;;;;;;5037217;28;20031;-30
2023/04/07 01:44:37;;;;;;;4.95;2.95;;;5.50;99.90;;;;;;5038120;28;20394;-30
2023/04/07 01:47:04;;;;;;;5.50;3.50;;;5.50;99.90;;;;;;5036213;28;20041;-30
2023/04/07 01:49:31;;;;;;;4.35;2.63;;;5.50;99.90;;;;;;5041766;28;20455;-30
2023/04/07 01:51:58;;;;;;;5.78;2.40;;;5.50;99.90;;;;;;5038002;28;20406;-31
2023/04/07 01:54:25;;;;;;;3.22;2.58;;;5.50;99.90;;;;;;5036113;28;20560;-30
2023/04/07 01:56:50;;;;;;;4.63;2.83;;;5.40;99.90;;;;;;5041499;28;20084;-29
2023/04/07 01:59:16;;;;;;;5.90;3.22;;;5.40;99.90;;;;;;5031500;28;20053;-30
2023/04/07 02:01:41;;;;;;;5.28;2.90;;;5.40;99.90;;;;;;5048157;28;20112;-30
2023/04/07 02:04:33;;;;;;;4.60;2.60;;;5.40;99.90;;;;;;5037906;28;20028;-30
2023/04/07 02:07:05;;;;;;;5.20;2.90;;;5.40;99.90;;;;;;5037943;28;20053;-30
2023/04/07 02:09:31;;;;;;;3.67;2.80;;;5.40;99.90;;;;;;5048594;28;20040;-31
2023/04/07 02:12:00;;;;;;;4.18;2.45;;;5.30;99.90;;;;;;5044017;28;20021;-30
2023/04/07 02:14:27;;;;;;;5.55;3.15;;;5.40;99.90;;;;;;5039694;28;20041;-31
2023/04/07 02:16:54;;;;;;;5.88;2.85;;;5.40;99.90;;;;;;5039071;28;20057;-30
2023/04/07 02:19:20;;;;;;;6.10;3.78;;;5.40;99.90;;;;;;5043891;28;20033;-30
2023/04/07 02:21:47;;;;;;;5.55;3.15;;;5.40;99.90;;;;;;5038330;28;20038;-30
2023/04/07 02:24:13;;;;;;;4.32;2.85;;;5.40;99.90;;;;;;5040016;28;20490;-30
2023/04/07 02:26:38;;;;;;;3.97;2.95;;;5.50;99.90;;;;;;5046383;28;20017;-30
2023/04/07 02:29:05;;;;;;;3.63;2.75;;;5.50;99.90;;;;;;5038075;28;20033;-30
2023/04/07 02:31:31;;;;;;;5.13;2.97;;;5.50;99.90;;;;;;5044726;28;20033;-30
2023/04/07 02:33:56;;;;;;;3.85;2.90;;;5.50;99.90;;;;;;5037948;28;20727;-30
2023/04/07 02:36:22;;;;;;;3.45;2.75;;;5.60;99.90;;;;;;5038050;28;20454;-30
2023/04/07 02:38:48;;;;;;;3.17;2.88;;;5.60;99.90;;;;;;5037723;28;20028;-30
2023/04/07 02:41:14;;;;;;;2.88;2.53;;;5.60;99.90;;;;;;5036622;28;20526;-30
2023/04/07 02:43:39;;;;;;;3.47;2.90;;;5.60;99.90;;;;;;5037582;28;20078;-30
2023/04/07 02:46:05;;;;;;;3.65;3.00;;;5.60;99.90;;;;;;5045303;28;20029;-30
2023/04/07 02:48:31;;;;;;;4.28;3.15;;;5.60;99.90;;;;;;5039954;28;20036;-30
2023/04/07 02:50:57;;;;;;;5.15;3.40;;;5.60;99.90;;;;;;5037755;28;20048;-32
2023/04/07 02:53:23;;;;;;;5.05;3.60;;;5.60;99.90;;;;;;5048299;28;20043;-30
2023/04/07 02:55:49;;;;;;;15.25;6.35;;;5.60;99.90;;;;;;5040719;28;20096;-30
2023/04/07 02:58:15;;;;;;;22.92;8.30;;;5.60;99.90;;;;;;5044352;28;20463;-29
2023/04/07 03:00:40;;;;;;;23.70;9.35;;;5.60;99.90;;;;;;5040002;28;20025;-30
2023/04/07 03:03:06;;;;;;;12.30;4.93;;;5.60;99.90;;;;;;5046900;28;20053;-30
2023/04/07 03:05:32;;;;;;;8.95;4.75;;;5.60;99.90;;;;;;5043128;28;20029;-30
2023/04/07 03:07:57;;;;;;;25.83;8.13;;;5.70;99.90;;;;;;5042304;28;20044;-31
2023/04/07 03:10:23;;;;;;;30.63;10.75;;;5.60;99.90;;;;;;5045051;28;20029;-31
2023/04/07 03:12:49;;;;;;;63.67;18.38;;;5.60;99.90;;;;;;5042181;28;20297;-31
2023/04/07 03:15:15;;;;;;;62.28;19.00;;;5.50;99.90;;;;;;5043959;28;20030;-30
2023/04/07 03:17:40;;;;;;;33.42;10.98;;;5.50;99.90;;;;;;5039722;28;20071;-30
2023/04/07 03:20:07;;;;;;;33.35;11.40;;;5.50;99.90;;;;;;5039207;28;20390;-30
2023/04/07 03:22:32;;;;;;;19.65;8.05;;;5.50;99.90;;;;;;5041273;28;20057;-31
2023/04/07 03:24:58;;;;;;;32.08;10.38;;;5.50;99.90;;;;;;5042821;28;20057;-31
2023/04/07 03:27:24;;;;;;;8.90;6.35;;;5.60;99.90;;;;;;5042904;28;20025;-31
2023/04/07 03:29:50;;;;;;;11.45;6.00;;;5.50;99.90;;;;;;5042685;28;20029;-30
2023/04/07 03:32:15;;;;;;;13.23;6.47;;;5.50;99.90;;;;;;5036338;28;20031;-30
2023/04/07 03:34:41;;;;;;;8.35;5.30;;;5.50;99.90;;;;;;5041696;28;20040;-31
2023/04/07 03:37:07;;;;;;;7.45;5.10;;;5.50;99.90;;;;;;5040593;28;20445;-30
2023/04/07 03:39:36;;;;;;;6.28;4.03;;;5.50;99.90;;;;;;5042223;28;20025;-30
2023/04/07 03:42:02;;;;;;;7.07;4.00;;;5.50;99.90;;;;;;5039994;28;20100;-30
2023/04/07 03:44:27;;;;;;;6.22;3.97;;;5.50;99.90;;;;;;5046018;28;20140;-31
2023/04/07 03:46:53;;;;;;;5.95;3.22;;;5.50;99.90;;;;;;5037244;28;20514;-32
2023/04/07 03:49:18;;;;;;;5.47;3.53;;;5.40;99.90;;;;;;5041673;28;20032;-30
2023/04/07 03:51:44;;;;;;;4.70;3.50;;;5.40;99.90;;;;;;5035706;28;20056;-31
2023/04/07 03:54:10;;;;;;;6.55;3.30;;;5.50;99.90;;;;;;5033001;28;20041;-30
2023/04/07 03:56:36;;;;;;;4.85;3.72;;;5.50;99.90;;;;;;5039737;28;20048;-31
2023/04/07 03:59:02;;;;;;;7.05;3.63;;;5.50;99.90;;;;;;5042647;28;20025;-31
2023/04/07 04:01:27;;;;;;;6.03;3.60;;;5.50;99.90;;;;;;5042141;28;20087;-31
2023/04/07 04:03:53;;;;;;;5.90;3.50;;;5.50;99.90;;;;;;5043591;28;20136;-30
2023/04/07 04:06:19;;;;;;;6.25;3.50;;;5.40;99.90;;;;;;5045239;28;20036;-30
2023/04/07 04:08:44;;;;;;;6.32;3.53;;;5.40;99.90;;;;;;5040959;28;20051;-31
2023/04/07 04:11:10;;;;;;;5.03;3.58;;;5.30;99.90;;;;;;5033959;28;20037;-31
2023/04/07 04:13:36;;;;;;;4.50;3.20;;;5.30;99.90;;;;;;5045233;28;20060;-31
2023/04/07 04:16:01;;;;;;;3.50;2.67;;;5.30;99.90;;;;;;5041636;28;20025;-31
2023/04/07 04:18:27;;;;;;;5.22;2.90;;;5.30;99.90;;;;;;5038246;28;20080;-31
2023/04/07 04:20:53;;;;;;;5.03;3.20;;;5.40;99.90;;;;;;5041709;28;20029;-31
2023/04/07 04:23:18;;;;;;;6.28;3.90;;;5.40;99.90;;;;;;5044953;28;20045;-31
2023/04/07 04:25:44;;;;;;;6.65;3.47;;;5.40;99.90;;;;;;5047108;28;20112;-30
2023/04/07 04:28:09;;;;;;;6.10;3.75;;;5.40;99.90;;;;;;5044158;28;20083;-30
2023/04/07 04:30:35;;;;;;;4.95;3.65;;;5.30;99.90;;;;;;5037487;28;20382;-30
2023/04/07 04:33:01;;;;;;;8.65;3.70;;;5.30;99.90;;;;;;5048581;28;20033;-31
2023/04/07 04:35:27;;;;;;;6.65;3.60;;;5.40;99.90;;;;;;5047894;28;20025;-30
2023/04/07 04:37:53;;;;;;;6.00;4.00;;;5.40;99.90;;;;;;5041130;28;20041;-30
2023/04/07 04:40:19;;;;;;;6.25;3.70;;;5.30;99.90;;;;;;5056331;28;20024;-30
2023/04/07 04:42:44;;;;;;;6.18;3.70;;;5.40;99.90;;;;;;5046096;28;20029;-32
2023/04/07 04:45:10;;;;;;;5.75;3.80;;;5.40;99.90;;;;;;5053785;28;20060;-31
2023/04/07 04:47:37;;;;;;;4.70;3.22;;;5.40;99.90;;;;;;5044539;28;20123;-31
2023/04/07 04:50:04;;;;;;;6.88;3.72;;;5.40;99.90;;;;;;5040578;28;20036;-31
2023/04/07 04:52:30;;;;;;;5.45;3.45;;;5.40;99.90;;;;;;5039435;28;20380;-31
2023/04/07 04:54:56;;;;;;;6.68;3.30;;;5.30;99.90;;;;;;5038356;28;20087;-31
2023/04/07 04:57:21;;;;;;;5.05;3.70;;;5.40;99.90;;;;;;5044426;28;20036;-31
2023/04/07 04:59:47;;;;;;;5.90;3.17;;;5.40;99.90;;;;;;5038120;28;20169;-30
2023/04/07 05:02:13;;;;;;;4.88;3.35;;;5.40;99.90;;;;;;5039173;28;20499;-31
2023/04/07 05:04:38;;;;;;;8.00;3.63;;;5.40;99.90;;;;;;5045049;28;20032;-31
2023/04/07 05:07:04;;;;;;;5.97;3.55;;;5.40;99.90;;;;;;5036101;28;20486;-30
2023/04/07 05:09:30;;;;;;;5.07;3.13;;;5.30;99.90;;;;;;5038916;28;20029;-31
2023/04/07 05:11:56;;;;;;;5.65;3.15;;;5.30;99.90;;;;;;5041178;28;20037;-30
2023/04/07 05:14:22;;;;;;;6.22;3.60;;;5.30;99.90;;;;;;5045726;28;20037;-30
2023/04/07 05:16:48;;;;;;;4.65;3.22;;;5.40;99.90;;;;;;5043857;28;20044;-30
2023/04/07 05:19:14;;;;;;;4.35;3.33;;;5.30;99.90;;;;;;5034848;28;20052;-37
2023/04/07 05:21:40;;;;;;;4.93;3.40;;;5.30;99.90;;;;;;5039278;28;20021;-31
2023/04/07 05:24:05;;;;;;;5.38;3.75;;;5.30;99.90;;;;;;5040531;28;20398;-31
2023/04/07 05:26:31;;;;;;;7.88;3.67;;;5.30;99.90;;;;;;5045173;28;20033;-32
2023/04/07 05:28:57;;;;;;;6.18;3.58;;;5.30;99.90;;;;;;5041471;28;20028;-30
2023/04/07 05:31:22;;;;;;;5.35;3.40;;;5.20;99.90;;;;;;5045476;28;20490;-30
2023/04/07 05:33:48;;;;;;;5.68;3.45;;;5.20;99.90;;;;;;5038054;28;20028;-31
2023/04/07 05:36:14;;;;;;;6.47;4.05;;;5.20;99.90;;;;;;5042052;28;20031;-31
2023/04/07 05:38:40;;;;;;;4.70;3.30;;;5.30;99.90;;;;;;5044851;28;20025;-30
2023/04/07 05:41:06;;;;;;;11.55;3.95;;;5.20;99.90;;;;;;5038565;28;20021;-31
2023/04/07 05:43:31;;;;;;;6.10;4.25;;;5.30;99.90;;;;;;5045636;28;20052;-31
2023/04/07 05:45:57;;;;;;;4.70;3.15;;;5.40;99.90;;;;;;5037617;28;20029;-31
2023/04/07 05:48:23;;;;;;;9.25;4.43;;;5.40;99.90;;;;;;5039455;28;20076;-31
2023/04/07 05:50:48;;;;;;;6.32;3.50;;;5.40;99.90;;;;;;5041580;28;20045;-31
2023/04/07 05:53:14;;;;;;;6.40;4.00;;;5.50;99.90;;;;;;5041419;28;20583;-30
2023/04/07 05:55:42;;;;;;;6.90;4.18;;;5.40;99.90;;;;;;5039869;28;20425;-31
2023/04/07 05:58:08;;;;;;;6.38;4.43;;;5.40;99.90;;;;;;5040251;28;20103;-30
2023/04/07 06:00:33;;;;;;;6.43;4.50;;;5.40;99.90;;;;;;5049573;28;20561;-31
2023/04/07 06:03:02;;;;;;;5.47;3.75;;;5.40;99.90;;;;;;5044673;28;20394;-30
2023/04/07 06:05:28;;;;;;;;;;;5.40;99.90;;;;;;5051017;28;20698;-31
2023/04/07 06:07:53;;;;;;;6.43;4.05;;;5.40;99.90;;;;;;5039702;28;19997;-31
2023/04/07 06:10:19;;;;;;;6.60;3.53;;;5.40;99.90;;;;;;5047418;28;20036;-30
2023/04/07 06:12:45;;;;;;;7.55;4.05;;;5.40;99.90;;;;;;5039197;28;20025;-30
2023/04/07 06:15:11;;;;;;;5.38;3.65;;;5.40;99.90;;;;;;5046331;28;20049;-30
2023/04/07 06:17:36;;;;;;;6.75;4.30;;;5.40;99.90;;;;;;5045725;28;20479;-30
2023/04/07 06:20:03;;;;;;;6.28;4.20;;;5.50;99.90;;;;;;5052104;28;20083;-31
2023/04/07 06:22:28;;;;;;;5.82;3.45;;;5.50;99.90;;;;;;5036023;28;20028;-30
2023/04/07 06:24:54;;;;;;;5.63;3.97;;;5.50;99.90;;;;;;5044466;28;20026;-31
2023/04/07 06:27:20;;;;;;;12.18;4.55;;;5.50;99.90;;;;;;5043540;28;20071;-31
2023/04/07 06:29:46;;;;;;;5.88;3.88;;;5.50;99.90;;;;;;5046529;28;20091;-30
2023/04/07 06:32:12;;;;;;;6.40;4.55;;;5.50;99.90;;;;;;5057689;28;20502;-31
2023/04/07 06:34:38;;;;;;;8.77;4.07;;;5.50;99.90;;;;;;5045397;28;20305;-31
2023/04/07 06:37:04;;;;;;;4.57;3.70;;;5.60;99.90;;;;;;5040252;28;20133;-30
2023/04/07 06:39:30;;;;;;;7.82;3.85;;;5.60;99.90;;;;;;5042107;28;20500;-30
2023/04/07 06:41:56;;;;;;;9.57;5.00;;;5.60;99.90;;;;;;5036043;28;20060;-30
2023/04/07 06:44:22;;;;;;;6.70;4.05;;;5.60;99.90;;;;;;5054637;28;20052;-30
2023/04/07 06:46:51;;;;;;;7.93;5.00;;;5.50;99.90;;;;;;5055862;28;20122;-30
2023/04/07 06:49:18;;;;;;;12.50;5.90;;;5.50;99.90;;;;;;5041905;28;20036;-30
2023/04/07 06:51:43;;;;;;;8.50;5.18;;;5.50;99.90;;;;;;5056809;28;20055;-30
2023/04/07 06:54:12;;;;;;;7.28;4.43;;;5.50;99.90;;;;;;5042725;28;20104;-30
2023/04/07 06:56:39;;;;;;;5.53;4.13;;;5.50;99.90;;;;;;5047212;28;20066;-30
2023/04/07 06:59:04;;;;;;;6.13;3.85;;;5.60;99.90;;;;;;5044689;28;20079;-31
2023/04/07 07:01:30;;;;;;;6.50;4.15;;;5.70;99.90;;;;;;5036924;28;20030;-31
2023/04/07 07:03:55;;;;;;;5.80;3.97;;;5.70;99.90;;;;;;5040303;28;20025;-30
2023/04/07 07:06:21;;;;;;;7.78;4.72;;;5.80;99.90;;;;;;5041639;28;20087;-31
2023/04/07 07:08:46;;;;;;;9.38;4.93;;;5.90;99.90;;;;;;5047166;28;20506;-30
2023/04/07 07:11:12;;;;;;;7.85;4.75;;;6.00;99.90;;;;;;5042780;28;20090;-30
2023/04/07 07:13:38;;;;;;;8.32;4.60;;;6.00;99.90;;;;;;5031841;28;20044;-30
2023/04/07 07:16:04;;;;;;;8.60;4.00;;;6.10;99.90;;;;;;5048088;28;20047;-30
2023/04/07 07:18:29;;;;;;;6.35;4.18;;;6.10;99.90;;;;;;5046394;28;20075;-30
2023/04/07 07:20:55;;;;;;;10.13;5.78;;;6.20;99.90;;;;;;5041491;28;20025;-31
2023/04/07 07:23:21;;;;;;;7.47;4.60;;;6.20;99.90;;;;;;5056942;28;20033;-31
2023/04/07 07:25:46;;;;;;;7.65;5.18;;;6.30;99.90;;;;;;5048709;28;20032;-31
2023/04/07 07:28:12;;;;;;;10.30;4.93;;;6.40;99.90;;;;;;5047620;28;20037;-31
2023/04/07 07:30:40;;;;;;;7.30;5.22;;;6.50;99.90;;;;;;5043543;28;20604;-31
2023/04/07 07:33:06;;;;;;;9.38;5.35;;;6.60;99.90;;;;;;5038838;28;20036;-30
2023/04/07 07:35:32;;;;;;;9.10;5.03;;;6.60;99.90;;;;;;5060481;28;20033;-30
2023/04/07 07:37:57;;;;;;;7.82;5.07;;;6.70;99.90;;;;;;5040713;28;20025;-30
2023/04/07 07:40:23;;;;;;;10.90;5.35;;;6.70;99.90;;;;;;5042473;28;20021;-30
2023/04/07 07:42:49;;;;;;;13.75;7.40;;;6.70;99.90;;;;;;5046971;28;20485;-30
2023/04/07 07:45:16;;;;;;;29.48;20.98;;;6.60;99.90;;;;;;5041278;28;20086;-30
2023/04/07 07:47:42;;;;;;;7.85;4.80;;;6.70;99.90;;;;;;5051532;28;20029;-30
2023/04/07 07:50:08;;;;;;;27.65;21.27;;;6.80;99.90;;;;;;5042024;28;20108;-31
2023/04/07 07:52:33;;;;;;;8.18;5.30;;;7.00;99.90;;;;;;5046013;28;20494;-30
2023/04/07 07:54:59;;;;;;;11.43;8.40;;;7.10;99.90;;;;;;5043732;28;20486;-30
2023/04/07 07:57:25;;;;;;;7.43;4.18;;;7.20;99.90;;;;;;5047919;28;20029;-30
2023/04/07 07:59:51;;;;;;;8.10;4.13;;;7.30;99.90;;;;;;5051192;28;20529;-31
2023/04/07 08:02:16;;;;;;;9.27;5.78;;;7.40;99.90;;;;;;5046056;28;20033;-31
2023/04/07 08:04:42;;;;;;;7.22;5.78;;;7.50;99.90;;;;;;5041640;28;20022;-30
2023/04/07 08:07:07;;;;;;;8.23;5.88;;;7.60;99.90;;;;;;5041022;28;20029;-30
2023/04/07 08:09:33;;;;;;;8.75;6.25;;;7.70;99.90;;;;;;5044213;28;20027;-30
2023/04/07 08:11:59;;;;;;;8.10;5.70;;;7.80;99.90;;;;;;5039739;28;20391;-31
2023/04/07 08:14:25;;;;;;;6.75;4.53;;;7.60;99.90;;;;;;5048349;28;20044;-30
2023/04/07 08:16:50;;;;;;;6.53;4.30;;;7.80;99.90;;;;;;5046097;28;20480;-30
2023/04/07 08:19:16;;;;;;;8.52;4.88;;;8.00;99.90;;;;;;5054428;28;20037;-30
2023/04/07 08:21:42;;;;;;;5.10;3.47;;;8.20;99.90;;;;;;5041837;28;20170;-30
2023/04/07 08:24:09;;;;;;;6.50;4.50;;;8.30;99.90;;;;;;5041796;28;20501;-30
2023/04/07 08:26:34;;;;;;;6.25;3.88;;;8.30;99.90;;;;;;5046737;28;20044;-31
2023/04/07 08:29:00;;;;;;;6.88;4.75;;;8.40;99.90;;;;;;5039961;28;20055;-30
2023/04/07 08:31:26;;;;;;;7.88;4.70;;;8.60;99.90;;;;;;5039494;28;20406;-30
2023/04/07 08:33:56;;;;;;;7.70;4.55;;;8.80;99.90;;;;;;5058163;28;20043;-30
2023/04/07 08:36:22;;;;;;;6.97;4.43;;;9.00;99.90;;;;;;5037529;28;20509;-29
2023/04/07 08:38:47;;;;;;;8.70;4.72;;;9.10;99.90;;;;;;5039646;28;20025;-31
2023/04/07 08:41:23;;;;;;;8.35;4.88;;;9.10;99.90;;;;;;5043906;28;20100;-30
2023/04/07 08:43:50;;;;;;;7.53;4.90;;;8.90;99.90;;;;;;5042283;28;20092;-30
2023/04/07 08:46:20;;;;;;;7.38;4.35;;;8.70;99.90;;;;;;5040841;28;20028;-30
2023/04/07 08:48:51;;;;;;;6.60;4.65;;;8.80;99.90;;;;;;5040921;28;20028;-29
2023/04/07 08:51:28;;;;;;;7.47;4.25;;;8.90;99.90;;;;;;5052893;28;20062;-30
2023/04/07 08:54:04;;;;;;;6.28;4.18;;;9.20;99.90;;;;;;5043107;28;20516;-30
2023/04/07 08:56:32;;;;;;;6.53;4.22;;;9.60;99.90;;;;;;5049064;28;20105;-30
2023/04/07 08:58:59;;;;;;;6.53;4.00;;;9.70;99.90;;;;;;5044369;28;20061;-30
2023/04/07 09:01:25;;;;;;;5.57;3.97;;;9.80;99.90;;;;;;5044258;28;20136;-29
2023/04/07 09:03:51;;;;;;;6.88;4.28;;;9.60;99.90;;;;;;5038960;28;20451;-30
2023/04/07 09:06:17;;;;;;;8.05;5.82;;;9.40;99.90;;;;;;5041745;28;20074;-30
2023/04/07 09:08:43;;;;;;;6.63;4.65;;;9.30;99.90;;;;;;5042920;28;20030;-30
2023/04/07 09:11:09;;;;;;;7.20;4.72;;;9.30;99.90;;;;;;5061156;28;20021;-30
2023/04/07 09:13:35;;;;;;;7.38;4.30;;;9.70;99.90;;;;;;5044353;28;20032;-30
2023/04/07 09:16:01;;;;;;;7.80;4.85;;;9.80;99.90;;;;;;5044972;28;20087;-30
2023/04/07 09:18:27;;;;;;;6.20;4.75;;;9.90;99.90;;;;;;5042033;28;20027;-30
2023/04/07 09:21:04;;;;;;;8.20;4.70;;;10.00;99.90;;;;;;5045541;28;20474;-29
2023/04/07 09:23:35;;;;;;;8.45;4.68;;;10.10;99.90;;;;;;5041605;28;20382;-29
2023/04/07 09:26:18;;;;;;;5.63;4.35;;;10.10;99.90;;;;;;5042574;28;20059;-30
2023/04/07 09:28:45;;;;;;;8.73;4.53;;;10.20;99.90;;;;;;5039312;28;20041;-30
2023/04/07 09:31:11;;;;;;;7.40;4.78;;;10.00;99.90;;;;;;5037140;28;20042;-29
2023/04/07 09:33:37;;;;;;;5.63;4.30;;;9.90;99.90;;;;;;5039467;28;20030;-30
2023/04/07 09:36:05;;;;;;;8.48;4.90;;;10.00;99.90;;;;;;5049569;28;20021;-29
2023/04/07 09:38:35;;;;;;;6.40;4.97;;;10.10;99.90;;;;;;5043013;28;20037;-29
2023/04/07 09:41:09;;;;;;;7.45;5.13;;;10.00;99.90;;;;;;5049326;28;20279;-30
2023/04/07 09:43:37;;;;;;;8.07;4.85;;;10.00;99.90;;;;;;5075801;28;20036;-30
2023/04/07 09:46:21;;;;;;;8.27;5.27;;;10.00;99.90;;;;;;5041413;28;20020;-29
2023/04/07 09:48:47;;;;;;;9.18;4.97;;;10.00;99.90;;;;;;5051063;28;20644;-29
2023/04/07 09:51:15;;;;;;;8.43;5.10;;;10.00;99.90;;;;;;5044315;28;20124;-29
2023/04/07 09:53:45;;;;;;;7.70;4.90;;;10.00;99.90;;;;;;5041410;28;21524;-30
2023/04/07 09:56:11;;;;;;;7.45;5.38;;;9.90;99.90;;;;;;5047160;28;20483;-29
2023/04/07 09:58:41;;;;;;;8.27;5.20;;;9.80;99.90;;;;;;5045565;28;20470;-29
2023/04/07 10:01:08;;;;;;;7.80;5.25;;;9.70;99.90;;;;;;5034406;28;20026;-30
2023/04/07 10:03:34;;;;;;;7.75;5.07;;;9.70;99.90;;;;;;5049790;28;20547;-30
2023/04/07 10:06:01;;;;;;;8.25;6.00;;;9.80;99.90;;;;;;5043911;28;20112;-29
2023/04/07 10:08:28;;;;;;;7.05;4.90;;;9.80;99.90;;;;;;5044070;28;20041;-30
2023/04/07 10:10:56;;;;;;;8.00;5.22;;;9.80;99.90;;;;;;5033230;28;20036;-30
2023/04/07 10:13:23;;;;;;;8.32;5.13;;;9.80;99.90;;;;;;5048347;28;20043;-29
2023/04/07 10:15:49;;;;;;;7.10;5.00;;;9.80;99.90;;;;;;5039906;28;20029;-41
2023/04/07 10:18:19;;;;;;;8.10;4.60;;;9.70;99.90;;;;;;5047969;28;20028;-41
2023/04/07 10:20:45;;;;;;;9.80;5.20;;;9.70;99.90;;;;;;5053024;28;20029;-41
2023/04/07 10:23:25;;;;;;;8.45;5.28;;;10.00;99.90;;;;;;5041827;28;20534;-41
2023/04/07 10:25:55;;;;;;;7.15;4.88;;;10.20;99.90;;;;;;5043264;28;20075;-41
2023/04/07 10:28:23;;;;;;;8.30;5.22;;;10.30;99.90;;;;;;5040840;28;20044;-41
2023/04/07 10:30:51;;;;;;;6.90;5.00;;;10.50;99.90;;;;;;5045302;28;20464;-41
2023/04/07 10:33:17;;;;;;;6.35;4.80;;;10.50;99.90;;;;;;5043513;28;20475;-41
2023/04/07 10:36:06;;;;;;;7.45;5.00;;;10.70;99.90;;;;;;5045183;28;20025;-41
2023/04/07 10:38:32;;;;;;;8.05;5.25;;;10.80;99.90;;;;;;5047426;28;20068;-41
2023/04/07 10:40:58;;;;;;;6.10;4.57;;;10.60;99.90;;;;;;5049147;28;20049;-41
2023/04/07 10:43:40;;;;;;;7.22;4.90;;;10.50;99.90;;;;;;5046731;28;20057;-40
2023/04/07 10:46:06;;;;;;;6.05;4.53;;;10.40;99.90;;;;;;5044353;28;20028;-41
2023/04/07 10:48:32;;;;;;;8.38;5.15;;;10.40;99.90;;;;;;5044064;28;20040;-41
2023/04/07 10:51:03;;;;;;;6.85;4.53;;;10.50;99.90;;;;;;5044734;28;20039;-41
2023/04/07 10:53:30;;;;;;;9.80;5.40;;;10.20;99.90;;;;;;5044052;28;20457;-41
2023/04/07 10:55:58;;;;;;;7.45;4.85;;;10.00;99.90;;;;;;5035261;28;20039;-41
2023/04/07 10:58:24;;;;;;;8.27;4.82;;;10.00;99.90;;;;;;5059557;28;20552;-41
2023/04/07 11:01:02;;;;;;;5.78;5.13;;;10.00;99.90;;;;;;5043430;28;20086;-41
2023/04/07 11:03:29;;;;;;;7.65;4.95;;;9.80;99.90;;;;;;5042969;28;20025;-41
2023/04/07 11:06:12;;;;;;;6.85;5.07;;;9.80;99.90;;;;;;5049666;28;20033;-41
2023/04/07 11:08:43;;;;;;;7.93;4.72;;;9.90;99.90;;;;;;5046243;28;20029;-41
2023/04/07 11:11:11;;;;;;;5.43;4.55;;;9.90;99.90;;;;;;5041024;28;20509;-41
2023/04/07 11:13:45;;;;;;;5.63;4.07;;;10.00;99.90;;;;;;5044258;28;20029;-41
2023/04/07 11:16:11;;;;;;;8.35;4.53;;;10.10;99.90;;;;;;5043835;28;20059;-41
2023/04/07 11:18:37;;;;;;;7.15;4.20;;;10.10;99.90;;;;;;5042635;28;20104;-41
2023/04/07 11:21:06;;;;;;;6.18;4.72;;;10.10;99.90;;;;;;5047966;28;20037;-40
2023/04/07 11:23:40;;;;;;;8.32;4.50;;;10.20;99.90;;;;;;5047698;28;20510;-41
2023/04/07 11:26:07;;;;;;;7.95;4.68;;;10.20;99.90;;;;;;5048597;28;20063;-41
2023/04/07 11:28:32;;;;;;;6.68;5.20;;;10.20;99.90;;;;;;5047732;28;20396;-41
2023/04/07 11:30:58;;;;;;;6.45;4.22;;;10.20;99.90;;;;;;5046128;28;20037;-41
2023/04/07 11:33:31;;;;;;;6.55;4.55;;;10.30;99.90;;;;;;5044222;28;20032;-40
2023/04/07 11:35:57;;;;;;;7.85;5.35;;;10.30;99.90;;;;;;5040886;28;20051;-41
2023/04/07 11:38:26;;;;;;;6.20;4.00;;;10.30;99.90;;;;;;5042732;28;20451;-41
2023/04/07 11:40:53;;;;;;;5.82;4.13;;;10.50;99.90;;;;;;5048446;28;20040;-40
2023/04/07 11:43:27;;;;;;;5.72;4.22;;;10.70;99.90;;;;;;5039394;28;20087;-40
2023/04/07 11:46:03;;;;;;;5.40;4.30;;;10.70;99.90;;;;;;5040980;28;20106;-40
2023/04/07 11:48:30;;;;;;;6.38;4.18;;;10.50;99.90;;;;;;5048764;28;20029;-40
2023/04/07 11:50:55;;;;;;;6.55;4.60;;;10.50;99.90;;;;;;5046934;28;20043;-40
2023/04/07 11:53:36;;;;;;;6.60;4.55;;;10.40;99.90;;;;;;5038814;28;20041;-40
2023/04/07 11:56:11;;;;;;;7.75;4.78;;;10.50;99.90;;;;;;5039778;28;20395;-40
2023/04/07 11:58:37;;;;;;;6.88;4.50;;;10.50;99.90;;;;;;5047459;28;20025;-40
2023/04/07 12:01:07;;;;;;;9.20;4.30;;;10.70;99.90;;;;;;5045111;28;20034;-40
2023/04/07 12:03:34;;;;;;;7.78;4.25;;;11.30;99.90;;;;;;5044317;28;20038;-40
2023/04/07 12:06:00;;;;;;;5.50;3.95;;;11.60;99.90;;;;;;5045532;28;20032;-40
2023/04/07 12:08:37;;;;;;;7.43;4.50;;;11.60;94.60;;;;;;5044943;28;20041;-40
2023/04/07 12:11:04;;;;;;;7.10;3.95;;;11.10;98.10;;;;;;5042850;28;20028;-40
2023/04/07 12:13:30;;;;;;;7.25;3.95;;;10.80;96.60;;;;;;5039816;28;20032;-40
2023/04/07 12:15:57;;;;;;;6.53;4.10;;;10.60;98.60;;;;;;5044192;28;20040;-40
2023/04/07 12:18:24;;;;;;;6.82;3.92;;;10.70;99.90;;;;;;5043104;28;20036;-40
2023/04/07 12:20:50;;;;;;;4.93;4.05;;;10.60;99.90;;;;;;5065875;28;20035;-40
2023/04/07 12:23:15;;;;;;;7.20;4.07;;;10.50;99.90;;;;;;5046557;28;20028;-41
2023/04/07 12:25:41;;;;;;;6.90;4.38;;;10.40;99.90;;;;;;5042222;28;20512;-40
2023/04/07 12:28:07;;;;;;;5.43;3.80;;;10.40;99.90;;;;;;5041641;28;20431;-41
2023/04/07 12:30:32;;;;;;;6.82;4.03;;;10.50;99.90;;;;;;5040782;28;20032;-39
2023/04/07 12:32:58;;;;;;;7.32;3.67;;;10.60;99.90;;;;;;5043744;28;20120;-41
2023/04/07 12:35:24;;;;;;;4.82;3.58;;;10.70;99.90;;;;;;5038128;28;20086;-41
2023/04/07 12:37:51;;;;;;;4.97;3.20;;;10.80;99.90;;;;;;5044285;28;20394;-40
2023/04/07 12:40:17;;;;;;;3.90;3.15;;;11.00;99.90;;;;;;5046148;28;20029;-40
2023/04/07 12:42:43;;;;;;;4.13;3.20;;;11.00;99.90;;;;;;5037737;28;20060;-40
2023/04/07 12:45:09;;;;;;;4.68;2.97;;;11.10;99.90;;;;;;5043837;28;20029;-41
2023/04/07 12:47:34;;;;;;;5.38;4.03;;;11.20;99.50;;;;;;5043473;28;20131;-41
2023/04/07 12:50:00;;;;;;;4.03;2.90;;;11.40;99.90;;;;;;5040434;28;20119;-40
2023/04/07 12:52:26;;;;;;;4.85;3.13;;;11.50;99.90;;;;;;5038872;28;20033;-40
2023/04/07 12:54:52;;;;;;;5.97;3.83;;;11.40;98.30;;;;;;5056437;28;20041;-40